createdAt,value
2022-12-16T00:01:24.291Z,99674.31
2022-12-16T00:03:55.036Z,99678.78
2022-12-16T00:06:23.055Z,99676.34
2022-12-16T00:08:49.504Z,99669.53
2022-12-16T00:11:15.986Z,99664.19
2022-12-16T00:13:42.470Z,99670.38
2022-12-16T00:16:13.931Z,99673.09
2022-12-16T00:18:41.116Z,99678.16
2022-12-16T00:21:08.402Z,99682.31
2022-12-16T00:23:36.612Z,99686.19
2022-12-16T00:26:04.030Z,99681.44
2022-12-16T00:28:31.046Z,99676.88
2022-12-16T00:30:57.738Z,99670.88
2022-12-16T00:33:26.173Z,99675.22
2022-12-16T00:35:53.568Z,99673.69
2022-12-16T00:38:22.389Z,99681.50
2022-12-16T00:40:48.828Z,99679.91
2022-12-16T00:43:15.538Z,99679.06
2022-12-16T00:45:42.003Z,99677.69
2022-12-16T00:48:08.619Z,99685.13
2022-12-16T00:50:35.968Z,99684.63
2022-12-16T00:53:02.870Z,99676.00
2022-12-16T00:55:29.432Z,99685.03
2022-12-16T00:57:55.856Z,99678.97
2022-12-16T01:00:23.626Z,99676.50
2022-12-16T01:02:51.109Z,99676.84
2022-12-16T01:05:20.903Z,99673.34
2022-12-16T01:07:48.330Z,99678.22
2022-12-16T01:10:15.195Z,99679.94
2022-12-16T01:12:41.650Z,99686.56
2022-12-16T01:15:09.229Z,99680.28
2022-12-16T01:17:35.712Z,99688.97
2022-12-16T01:20:02.786Z,99688.47
2022-12-16T01:22:32.770Z,99686.44
2022-12-16T01:24:59.938Z,99688.72
2022-12-16T01:27:27.210Z,99687.78
2022-12-16T01:29:53.669Z,99682.81
2022-12-16T01:32:22.170Z,99683.78
2022-12-16T01:34:55.121Z,99674.72
2022-12-16T01:37:23.556Z,99674.00
2022-12-16T01:39:50.482Z,99667.25
2022-12-16T01:42:19.853Z,99653.97
2022-12-16T01:44:48.440Z,99647.41
2022-12-16T01:47:20.804Z,99648.34
2022-12-16T01:49:51.579Z,99640.75
2022-12-16T01:52:30.461Z,99628.22
2022-12-16T01:55:07.241Z,99623.47
2022-12-16T01:57:37.141Z,99639.19
2022-12-16T02:00:06.244Z,99638.28
2022-12-16T02:02:33.836Z,99632.59
2022-12-16T02:05:19.227Z,99630.28
2022-12-16T02:07:53.811Z,99624.00
2022-12-16T02:10:27.879Z,99627.97
2022-12-16T02:13:05.888Z,99621.75
2022-12-16T02:15:42.931Z,99620.31
2022-12-16T02:18:24.531Z,99621.16
2022-12-16T02:21:05.817Z,99617.72
2022-12-16T02:23:53.203Z,99625.63
2022-12-16T02:26:48.048Z,99630.09
2022-12-16T02:29:39.236Z,99623.81
2022-12-16T02:32:22.175Z,99623.81
2022-12-16T02:34:57.531Z,99612.00
2022-12-16T02:37:52.970Z,99609.00
2022-12-16T02:40:28.056Z,99619.13
2022-12-16T02:43:00.372Z,99613.41
2022-12-16T02:45:28.937Z,99606.63
2022-12-16T02:47:55.440Z,99600.47
2022-12-16T02:50:33.733Z,99608.63
2022-12-16T02:53:00.757Z,99605.53
2022-12-16T02:55:56.410Z,99587.59
2022-12-16T02:58:48.573Z,99586.16
2022-12-16T03:01:25.269Z,99587.78
2022-12-16T03:04:01.559Z,99584.53
2022-12-16T03:06:32.201Z,99568.22
2022-12-16T03:09:00.544Z,99570.66
2022-12-16T03:11:28.623Z,99569.50
2022-12-16T03:13:56.196Z,99576.50
2022-12-16T03:16:26.349Z,99570.59
2022-12-16T03:18:55.512Z,99568.34
2022-12-16T03:21:24.593Z,99571.59
2022-12-16T03:24:02.015Z,99565.88
2022-12-16T03:26:34.412Z,99566.22
2022-12-16T03:29:05.169Z,99565.16
2022-12-16T03:31:40.150Z,99576.09
2022-12-16T03:34:33.657Z,99578.88
2022-12-16T03:37:04.109Z,99565.53
2022-12-16T03:39:34.025Z,99559.00
2022-12-16T03:42:01.384Z,99554.72
2022-12-16T03:44:28.162Z,99553.16
2022-12-16T03:46:54.694Z,99545.47
2022-12-16T03:49:22.868Z,99536.06
2022-12-16T03:51:49.480Z,99537.22
2022-12-16T03:54:16.094Z,99525.19
2022-12-16T03:56:43.109Z,99523.38
2022-12-16T03:59:09.593Z,99521.50
2022-12-16T04:01:37.684Z,99518.84
2022-12-16T04:04:04.300Z,99523.09
2022-12-16T04:06:30.949Z,99527.78
2022-12-16T04:08:57.357Z,99522.81
2022-12-16T04:11:42.588Z,99527.13
2022-12-16T04:14:28.159Z,99518.78
2022-12-16T04:17:13.848Z,99520.25
2022-12-16T04:19:58.989Z,99524.03
2022-12-16T04:23:04.169Z,99521.69
2022-12-16T04:25:35.906Z,99521.28
2022-12-16T04:28:02.598Z,99527.53
2022-12-16T04:30:31.128Z,99525.63
2022-12-16T04:33:26.558Z,99528.88
2022-12-16T04:36:11.851Z,99528.19
2022-12-16T04:38:56.964Z,99524.47
2022-12-16T04:41:42.465Z,99519.38
2022-12-16T04:44:27.623Z,99515.53
2022-12-16T04:47:12.622Z,99509.50
2022-12-16T04:50:02.340Z,99515.81
2022-12-16T04:52:47.648Z,99513.25
2022-12-16T04:55:32.916Z,99514.69
2022-12-16T04:58:19.676Z,99518.97
2022-12-16T05:01:05.843Z,99507.13
2022-12-16T05:03:51.940Z,99502.66
2022-12-16T05:06:37.553Z,99511.06
2022-12-16T05:09:22.989Z,99518.44
2022-12-16T05:12:08.064Z,99495.06
2022-12-16T05:14:53.543Z,99499.78
2022-12-16T05:17:39.099Z,99492.59
2022-12-16T05:20:24.565Z,99505.34
2022-12-16T05:23:09.691Z,99501.34
2022-12-16T05:25:54.561Z,99495.63
2022-12-16T05:28:39.775Z,99494.31
2022-12-16T05:31:25.334Z,99500.25
2022-12-16T05:34:10.652Z,99495.91
2022-12-16T05:36:55.686Z,99485.41
2022-12-16T05:39:40.778Z,99492.41
2022-12-16T05:42:25.899Z,99517.09
2022-12-16T05:45:11.396Z,99522.78
2022-12-16T05:47:56.241Z,99521.13
2022-12-16T05:50:41.532Z,99519.59
2022-12-16T05:53:26.672Z,99529.53
2022-12-16T05:56:11.721Z,99526.94
2022-12-16T05:58:56.730Z,99525.34
2022-12-16T06:01:41.944Z,99518.13
2022-12-16T06:04:26.919Z,99523.38
2022-12-16T06:07:12.631Z,99528.16
2022-12-16T06:09:57.739Z,99531.41
2022-12-16T06:12:42.854Z,99523.50
2022-12-16T06:15:28.587Z,99528.56
2022-12-16T06:18:13.669Z,99532.03
2022-12-16T06:20:58.831Z,99536.44
2022-12-16T06:23:44.239Z,99533.78
2022-12-16T06:26:29.289Z,99534.81
2022-12-16T06:29:14.746Z,99527.72
2022-12-16T06:31:59.760Z,99535.69
2022-12-16T06:34:44.933Z,99530.50
2022-12-16T06:37:30.105Z,99531.06
2022-12-16T06:40:15.530Z,99517.94
2022-12-16T06:43:01.208Z,99511.84
2022-12-16T06:45:46.324Z,99516.25
2022-12-16T06:48:31.778Z,99518.91
2022-12-16T06:51:16.797Z,99519.63
2022-12-16T06:54:02.051Z,99515.28
2022-12-16T06:56:47.296Z,99516.69
2022-12-16T06:59:32.573Z,99521.97
2022-12-16T07:02:18.158Z,99521.81
2022-12-16T07:05:03.752Z,99530.38
2022-12-16T07:07:48.960Z,99542.16
2022-12-16T07:10:34.221Z,99545.97
2022-12-16T07:13:19.753Z,99542.41
2022-12-16T07:16:05.949Z,99533.00
2022-12-16T07:18:51.124Z,99540.00
2022-12-16T07:21:37.925Z,99543.50
2022-12-16T07:24:23.107Z,99544.22
2022-12-16T07:27:08.366Z,99544.09
2022-12-16T07:29:53.351Z,99542.41
2022-12-16T07:32:38.471Z,99549.28
2022-12-16T07:35:24.060Z,99543.84
2022-12-16T07:38:09.111Z,99544.56
2022-12-16T07:40:54.399Z,99527.72
2022-12-16T07:43:40.105Z,99535.13
2022-12-16T07:46:25.515Z,99553.56
2022-12-16T07:49:10.789Z,99549.41
2022-12-16T07:51:55.901Z,99526.56
2022-12-16T07:54:41.200Z,99527.84
2022-12-16T07:57:26.365Z,99529.66
2022-12-16T08:00:11.500Z,99518.19
2022-12-16T08:02:57.084Z,99521.81
2022-12-16T08:05:42.250Z,99516.63
2022-12-16T08:08:27.420Z,99515.66
2022-12-16T08:11:12.442Z,99509.78
2022-12-16T08:13:57.377Z,99516.50
2022-12-16T08:16:42.495Z,99519.28
2022-12-16T08:19:28.573Z,99519.88
2022-12-16T08:22:13.769Z,99522.59
2022-12-16T08:24:58.740Z,99506.88
2022-12-16T08:27:43.931Z,99502.66
2022-12-16T08:30:29.570Z,99498.91
2022-12-16T08:33:19.283Z,99499.16
2022-12-16T08:36:06.021Z,99487.38
2022-12-16T08:38:53.045Z,99505.06
2022-12-16T08:41:38.206Z,99502.66
2022-12-16T08:44:23.888Z,99505.94
2022-12-16T08:47:09.073Z,99513.47
2022-12-16T08:49:57.724Z,99517.69
2022-12-16T08:52:46.627Z,99513.31
2022-12-16T08:55:34.711Z,99501.88
2022-12-16T08:58:19.863Z,99505.09
2022-12-16T09:01:25.039Z,99504.72
2022-12-16T09:04:10.226Z,99492.41
2022-12-16T09:06:55.590Z,99476.16
2022-12-16T09:09:40.619Z,99473.38
2022-12-16T09:12:25.879Z,99482.66
2022-12-16T09:15:11.028Z,99473.88
2022-12-16T09:17:55.985Z,99465.19
2022-12-16T09:20:41.317Z,99452.97
2022-12-16T09:23:26.747Z,99439.75
2022-12-16T09:26:12.058Z,99428.75
2022-12-16T09:28:57.263Z,99438.31
2022-12-16T09:31:42.664Z,99434.16
2022-12-16T09:34:27.927Z,99440.13
2022-12-16T09:37:12.927Z,99433.13
2022-12-16T09:39:58.355Z,99430.59
2022-12-16T09:42:51.695Z,99426.53
2022-12-16T09:46:08.213Z,99418.53
2022-12-16T09:49:08.793Z,99415.34
2022-12-16T09:51:55.608Z,99415.81
2022-12-16T09:54:43.938Z,99416.31
2022-12-16T09:57:29.111Z,99410.41
2022-12-16T10:00:20.312Z,99404.72
2022-12-16T10:03:09.243Z,99413.34
2022-12-16T10:06:15.849Z,99417.69
2022-12-16T10:09:06.403Z,99409.47
2022-12-16T10:12:25.704Z,99400.38
2022-12-16T10:15:19.699Z,99397.50
2022-12-16T10:18:05.381Z,99399.63
2022-12-16T10:21:02.248Z,99410.00
2022-12-16T10:24:03.491Z,99422.13
2022-12-16T10:27:06.487Z,99416.44
2022-12-16T10:29:52.985Z,99410.78
2022-12-16T10:33:06.263Z,99415.13
2022-12-16T10:36:01.199Z,99404.84
2022-12-16T10:38:55.279Z,99403.69
2022-12-16T10:41:43.576Z,99401.72
2022-12-16T10:44:41.677Z,99395.38
2022-12-16T10:47:28.789Z,99390.88
2022-12-16T10:50:14.410Z,99382.25
2022-12-16T10:53:08.771Z,99370.41
2022-12-16T10:56:05.813Z,99377.06
2022-12-16T10:59:12.178Z,99373.72
2022-12-16T11:01:57.372Z,99381.56
2022-12-16T11:04:50.711Z,99366.81
2022-12-16T11:07:42.982Z,99370.72
2022-12-16T11:10:49.808Z,99368.06
2022-12-16T11:13:48.173Z,99368.72
2022-12-16T11:16:40.545Z,99361.47
2022-12-16T11:19:38.272Z,99364.31
2022-12-16T11:22:32.763Z,99368.59
2022-12-16T11:25:32.283Z,99360.66
2022-12-16T11:28:43.763Z,99363.09
2022-12-16T11:31:33.102Z,99357.31
2022-12-16T11:34:19.123Z,99358.13
2022-12-16T11:37:05.518Z,99363.56
2022-12-16T11:39:51.067Z,99360.50
2022-12-16T11:42:40.863Z,99345.69
2022-12-16T11:45:32.163Z,99353.31
2022-12-16T11:48:24.309Z,99342.00
2022-12-16T11:51:12.534Z,99340.31
2022-12-16T11:54:14.353Z,99340.66
2022-12-16T11:57:02.413Z,99353.94
2022-12-16T12:00:01.423Z,99348.41
2022-12-16T12:03:08.497Z,99347.94
2022-12-16T12:06:30.544Z,99350.09
2022-12-16T12:09:29.532Z,99344.69
2022-12-16T12:12:35.450Z,99346.09
2022-12-16T12:15:36.040Z,99355.50
2022-12-16T12:18:27.197Z,99357.03
2022-12-16T12:21:20.068Z,99348.94
2022-12-16T12:24:23.462Z,99352.06
2022-12-16T12:27:17.798Z,99350.16
2022-12-16T12:30:22.597Z,99340.59
2022-12-16T12:33:20.172Z,99349.41
2022-12-16T12:36:36.397Z,99344.91
2022-12-16T12:39:36.991Z,99335.69
2022-12-16T12:42:49.830Z,99341.19
2022-12-16T12:45:45.436Z,99342.56
2022-12-16T12:48:37.095Z,99352.03
2022-12-16T12:51:46.893Z,99353.53
2022-12-16T12:54:55.860Z,99347.69
2022-12-16T12:57:42.308Z,99350.53
2022-12-16T13:00:36.395Z,99346.56
2022-12-16T13:03:24.625Z,99353.44
2022-12-16T13:06:10.718Z,99355.44
2022-12-16T13:08:56.478Z,99358.94
2022-12-16T13:11:42.918Z,99353.59
2022-12-16T13:14:49.713Z,99367.72
2022-12-16T13:17:39.045Z,99372.00
2022-12-16T13:20:50.747Z,99380.16
2022-12-16T13:23:53.361Z,99383.06
2022-12-16T13:26:40.553Z,99380.47
2022-12-16T13:29:44.710Z,99380.19
2022-12-16T13:32:42.641Z,99368.53
2022-12-16T13:35:27.596Z,99358.97
2022-12-16T13:38:17.311Z,99373.84
2022-12-16T13:41:12.587Z,99381.03
2022-12-16T13:44:17.700Z,99391.28
2022-12-16T13:47:13.187Z,99377.84
2022-12-16T13:49:59.343Z,99381.72
2022-12-16T13:53:03.285Z,99373.78
2022-12-16T13:56:11.491Z,99366.63
2022-12-16T13:59:00.162Z,99380.06
2022-12-16T14:02:04.138Z,99388.66
2022-12-16T14:04:58.385Z,99400.06
2022-12-16T14:07:45.148Z,99387.69
2022-12-16T14:10:44.000Z,99397.06
2022-12-16T14:13:46.606Z,99413.50
2022-12-16T14:16:44.419Z,99411.97
2022-12-16T14:19:50.868Z,99411.03
2022-12-16T14:23:03.160Z,99397.06
2022-12-16T14:25:48.559Z,99402.41
2022-12-16T14:28:47.543Z,99393.09
2022-12-16T14:31:52.197Z,99394.41
2022-12-16T14:34:49.335Z,99391.97
2022-12-16T14:37:53.174Z,99384.41
2022-12-16T14:40:41.614Z,99400.22
2022-12-16T14:43:32.735Z,99404.31
2022-12-16T14:46:18.478Z,99423.78
2022-12-16T14:49:07.478Z,99427.16
2022-12-16T14:51:57.227Z,99427.69
2022-12-16T14:54:59.531Z,99440.22
2022-12-16T14:57:46.864Z,99433.56
2022-12-16T15:00:33.816Z,99433.50
2022-12-16T15:03:35.395Z,99429.09
2022-12-16T15:06:25.893Z,99436.22
2022-12-16T15:09:13.864Z,99430.22
2022-12-16T15:12:00.647Z,99439.59
2022-12-16T15:14:49.148Z,99446.50
2022-12-16T15:17:39.187Z,99454.41
2022-12-16T15:20:33.978Z,99475.19
2022-12-16T15:23:19.591Z,99472.91
2022-12-16T15:26:08.676Z,99469.09
2022-12-16T15:28:53.842Z,99454.72
2022-12-16T15:31:43.988Z,99459.81
2022-12-16T15:34:45.711Z,99477.09
2022-12-16T15:37:38.664Z,99479.59
2022-12-16T15:40:34.088Z,99479.69
2022-12-16T15:43:19.375Z,99483.84
2022-12-16T15:46:07.994Z,99478.91
2022-12-16T15:48:54.773Z,99476.94
2022-12-16T15:51:45.863Z,99487.38
2022-12-16T15:54:35.361Z,99489.09
2022-12-16T15:57:20.849Z,99486.66
2022-12-16T16:00:17.170Z,99476.53
2022-12-16T16:03:07.462Z,99497.91
2022-12-16T16:05:54.484Z,99490.28
2022-12-16T16:08:39.965Z,99488.03
2022-12-16T16:11:24.967Z,99485.44
2022-12-16T16:14:14.149Z,99488.03
2022-12-16T16:17:00.029Z,99482.06
2022-12-16T16:19:45.750Z,99483.63
2022-12-16T16:22:33.645Z,99485.94
2022-12-16T16:25:19.100Z,99481.56
2022-12-16T16:28:04.786Z,99491.41
2022-12-16T16:30:52.991Z,99481.13
2022-12-16T16:37:02.169Z,99489.78
2022-12-16T16:39:47.314Z,99490.56
2022-12-16T16:42:32.385Z,99503.63
2022-12-16T16:45:17.273Z,99513.03
2022-12-16T16:48:02.267Z,99502.50
2022-12-16T16:50:47.250Z,99516.41
2022-12-16T16:53:36.022Z,99521.66
2022-12-16T16:56:22.281Z,99516.81
2022-12-16T16:59:07.357Z,99522.50
2022-12-16T17:01:52.801Z,99527.06
2022-12-16T17:04:37.914Z,99540.22
2022-12-16T17:07:22.899Z,99555.97
2022-12-16T17:10:07.992Z,99554.41
2022-12-16T17:12:52.861Z,99554.63
2022-12-16T17:15:41.147Z,99556.09
2022-12-16T17:18:26.956Z,99558.00
2022-12-16T17:21:12.615Z,99551.59
2022-12-16T17:23:58.370Z,99551.34
2022-12-16T17:26:43.585Z,99552.38
2022-12-16T17:29:43.285Z,99553.06
2022-12-16T17:32:29.013Z,99554.25
2022-12-16T17:35:14.054Z,99556.16
2022-12-16T17:37:59.237Z,99560.38
2022-12-16T17:40:44.385Z,99570.91
2022-12-16T17:43:30.002Z,99582.59
2022-12-16T17:46:17.959Z,99579.78
2022-12-16T17:49:03.117Z,99575.81
2022-12-16T17:51:48.741Z,99572.59
2022-12-16T17:54:34.393Z,99579.13
2022-12-16T17:57:19.603Z,99583.09
2022-12-16T18:00:04.770Z,99594.13
2022-12-16T18:02:49.961Z,99603.78
2022-12-16T18:05:42.410Z,99588.34
2022-12-16T18:08:29.177Z,99593.28
2022-12-16T18:11:15.523Z,99592.13
2022-12-16T18:14:01.304Z,99606.09
2022-12-16T18:16:46.756Z,99620.56
2022-12-16T18:19:32.897Z,99615.16
2022-12-16T18:22:18.217Z,99608.84
2022-12-16T18:25:03.591Z,99610.25
2022-12-16T18:27:48.693Z,99604.84
2022-12-16T18:30:34.310Z,99605.97
2022-12-16T18:33:19.908Z,99607.03
2022-12-16T18:36:05.037Z,99611.66
2022-12-16T18:38:53.785Z,99613.69
2022-12-16T18:41:40.695Z,99635.72
2022-12-16T18:44:28.701Z,99638.06
2022-12-16T18:47:13.887Z,99647.19
2022-12-16T18:49:58.811Z,99638.19
2022-12-16T18:52:43.823Z,99641.47
2022-12-16T18:55:29.397Z,99638.63
2022-12-16T18:58:42.621Z,99647.66
2022-12-16T19:01:22.195Z,99649.00
2022-12-16T19:04:07.519Z,99650.88
2022-12-16T19:06:52.712Z,99656.84
2022-12-16T19:09:37.992Z,99661.22
2022-12-16T19:12:23.458Z,99671.03
2022-12-16T19:15:08.320Z,99679.34
2022-12-16T19:17:53.456Z,99679.97
2022-12-16T19:20:40.257Z,99693.06
2022-12-16T19:23:28.187Z,99700.53
2022-12-16T19:26:19.951Z,99692.66
2022-12-16T19:29:05.191Z,99699.34
2022-12-16T19:31:53.979Z,99697.72
2022-12-16T19:34:41.532Z,99698.78
2022-12-16T19:37:26.786Z,99699.19
2022-12-16T19:40:13.536Z,99698.56
2022-12-16T19:42:58.812Z,99704.16
2022-12-16T19:45:44.086Z,99703.19
2022-12-16T19:48:29.184Z,99691.97
2022-12-16T19:51:18.237Z,99703.97
2022-12-16T19:54:03.806Z,99723.97
2022-12-16T19:56:49.779Z,99734.16
2022-12-16T19:59:34.871Z,99737.94
2022-12-16T20:02:20.409Z,99731.91
2022-12-16T20:05:05.978Z,99723.13
2022-12-16T20:07:59.160Z,99724.81
2022-12-16T20:10:45.959Z,99727.53
2022-12-16T20:13:32.629Z,99747.41
2022-12-16T20:16:32.845Z,99749.50
2022-12-16T20:19:17.879Z,99759.94
2022-12-16T20:22:06.940Z,99759.69
2022-12-16T20:27:58.620Z,99745.53
2022-12-16T20:30:43.528Z,99731.34
2022-12-16T20:33:35.251Z,99739.75
2022-12-16T20:36:22.456Z,99744.47
2022-12-16T20:39:07.556Z,99741.38
2022-12-16T20:41:55.994Z,99743.34
2022-12-16T20:44:41.551Z,99754.31
2022-12-16T20:47:26.478Z,99760.97
2022-12-16T20:50:11.686Z,99766.09
2022-12-16T20:52:56.815Z,99764.13
2022-12-16T20:55:42.053Z,99755.69
2022-12-16T20:58:27.608Z,99758.00
2022-12-16T21:01:14.189Z,99754.31
2022-12-16T21:03:59.694Z,99763.44
2022-12-16T21:06:44.653Z,99765.84
2022-12-16T21:09:30.040Z,99759.97
2022-12-16T21:12:16.024Z,99771.19
2022-12-16T21:15:01.531Z,99770.72
2022-12-16T21:17:48.465Z,99773.72
2022-12-16T21:20:33.750Z,99770.28
2022-12-16T21:23:23.215Z,99779.75
2022-12-16T21:26:08.187Z,99770.28
2022-12-16T21:28:53.512Z,99778.78
2022-12-16T21:31:41.420Z,99782.63
2022-12-16T21:34:26.242Z,99779.19
2022-12-16T21:37:11.105Z,99779.94
2022-12-16T21:39:56.575Z,99782.06
2022-12-16T21:42:44.057Z,99782.84
2022-12-16T21:45:29.735Z,99779.84
2022-12-16T21:48:15.243Z,99793.63
2022-12-16T21:51:00.328Z,99791.47
2022-12-16T21:53:45.942Z,99807.34
2022-12-16T21:56:34.707Z,99820.28
2022-12-16T21:59:19.663Z,99823.59
2022-12-16T22:02:04.654Z,99825.66
2022-12-16T22:04:49.988Z,99819.59
2022-12-16T22:07:35.503Z,99814.88
2022-12-16T22:10:21.543Z,99819.44
2022-12-16T22:13:06.463Z,99810.09
2022-12-16T22:15:51.703Z,99807.50
2022-12-16T22:18:37.277Z,99821.13
2022-12-16T22:21:23.632Z,99825.66
2022-12-16T22:24:09.432Z,99831.78
2022-12-16T22:26:54.373Z,99847.09
2022-12-16T22:29:41.787Z,99856.78
2022-12-16T22:32:27.102Z,99854.00
2022-12-16T22:35:12.254Z,99856.00
2022-12-16T22:36:21.173Z,99759.34
2022-12-16T22:37:57.706Z,99863.53
2022-12-16T22:40:42.600Z,99860.72
2022-12-16T22:43:27.636Z,99857.63
2022-12-16T22:46:19.754Z,99864.03
2022-12-16T22:49:05.467Z,99865.00
2022-12-16T22:51:51.501Z,99875.16
2022-12-16T22:54:37.468Z,99875.25
2022-12-16T22:57:22.507Z,99890.34
2022-12-16T23:00:07.947Z,99893.84
2022-12-16T23:02:52.929Z,99889.81
2022-12-16T23:05:38.629Z,99887.22
2022-12-16T23:08:23.987Z,99883.19
2022-12-16T23:11:16.106Z,99882.47
2022-12-16T23:14:01.342Z,99891.78
2022-12-16T23:16:46.816Z,99882.56
2022-12-16T23:19:31.867Z,99884.56
2022-12-16T23:22:17.058Z,99883.59
2022-12-16T23:25:01.994Z,99890.09
2022-12-16T23:27:47.243Z,99887.13
2022-12-16T23:30:32.611Z,99897.22
2022-12-16T23:33:18.404Z,99901.19
2022-12-16T23:36:03.874Z,99898.53
2022-12-16T23:38:49.267Z,99899.63
2022-12-16T23:41:34.494Z,99895.59
2022-12-16T23:44:19.403Z,99906.84
2022-12-16T23:47:04.289Z,99905.56
2022-12-16T23:49:49.659Z,99898.78
2022-12-16T23:52:34.881Z,99895.41
2022-12-16T23:55:20.279Z,99898.53
2022-12-16T23:58:05.595Z,99903.59
